createdAt,value
2019-01-27T00:00:55.619Z,8.10
2019-01-27T00:03:24.667Z,7.80
2019-01-27T00:05:53.626Z,6.37
2019-01-27T00:08:22.209Z,6.60
2019-01-27T00:10:51.067Z,6.90
2019-01-27T00:13:19.994Z,6.27
2019-01-27T00:15:48.710Z,7.40
2019-01-27T00:18:17.392Z,6.80
2019-01-27T00:20:46.189Z,7.10
2019-01-27T00:23:14.909Z,6.30
2019-01-27T00:25:43.855Z,6.43
2019-01-27T00:28:12.724Z,6.80
2019-01-27T00:30:41.457Z,6.80
2019-01-27T00:33:09.956Z,6.00
2019-01-27T00:35:38.738Z,6.33
2019-01-27T00:38:07.366Z,6.17
2019-01-27T00:40:36.198Z,6.57
2019-01-27T00:43:05.023Z,5.63
2019-01-27T00:45:33.714Z,5.73
2019-01-27T00:48:02.964Z,5.63
2019-01-27T00:50:31.763Z,6.60
2019-01-27T00:53:00.108Z,5.90
2019-01-27T00:55:28.936Z,5.60
2019-01-27T00:57:57.708Z,5.63
2019-01-27T01:00:27.175Z,5.70
2019-01-27T01:02:55.916Z,5.93
2019-01-27T01:05:24.799Z,5.53
2019-01-27T01:07:53.502Z,5.30
2019-01-27T01:10:23.111Z,6.00
2019-01-27T01:12:52.003Z,4.80
2019-01-27T01:15:20.735Z,5.53
2019-01-27T01:17:49.358Z,5.73
2019-01-27T01:20:21.481Z,4.90
2019-01-27T01:22:50.727Z,5.40
2019-01-27T01:25:20.299Z,5.00
2019-01-27T01:27:49.083Z,5.97
2019-01-27T01:30:18.827Z,5.33
2019-01-27T01:32:47.538Z,5.50
2019-01-27T01:35:16.309Z,5.80
2019-01-27T01:37:45.125Z,5.00
2019-01-27T01:40:15.007Z,5.20
2019-01-27T01:42:43.846Z,4.97
2019-01-27T01:45:13.901Z,5.63
2019-01-27T01:47:42.561Z,6.10
2019-01-27T01:50:11.825Z,5.97
2019-01-27T01:52:40.640Z,6.53
2019-01-27T01:55:10.036Z,8.17
2019-01-27T01:57:38.819Z,6.70
2019-01-27T02:00:12.010Z,7.30
2019-01-27T02:02:40.659Z,7.20
2019-01-27T02:05:10.337Z,5.90
2019-01-27T02:07:39.010Z,10.13
2019-01-27T02:10:09.124Z,8.30
2019-01-27T02:12:37.879Z,6.57
2019-01-27T02:15:07.767Z,5.67
2019-01-27T02:17:36.512Z,5.60
2019-01-27T02:20:05.646Z,5.50
2019-01-27T02:22:34.341Z,5.97
2019-01-27T02:25:02.887Z,6.60
2019-01-27T02:27:31.709Z,6.27
2019-01-27T02:30:00.386Z,6.60
2019-01-27T02:32:28.992Z,6.10
2019-01-27T02:34:57.847Z,5.43
2019-01-27T02:37:26.570Z,4.90
2019-01-27T02:39:55.347Z,5.93
2019-01-27T02:42:24.192Z,5.73
2019-01-27T02:44:52.939Z,5.10
2019-01-27T02:47:21.697Z,5.73
2019-01-27T02:49:50.493Z,5.13
2019-01-27T02:52:19.949Z,4.57
2019-01-27T02:54:48.774Z,5.13
2019-01-27T02:57:17.766Z,4.70
2019-01-27T02:59:46.461Z,4.73
2019-01-27T03:02:15.296Z,4.93
2019-01-27T03:04:44.008Z,5.90
2019-01-27T03:07:14.373Z,6.03
2019-01-27T03:09:43.170Z,6.10
2019-01-27T03:12:12.056Z,6.47
2019-01-27T03:14:40.744Z,5.70
2019-01-27T03:17:10.462Z,5.80
2019-01-27T03:19:39.350Z,5.70
2019-01-27T03:22:08.079Z,6.00
2019-01-27T03:24:36.820Z,5.57
2019-01-27T03:27:05.648Z,6.30
2019-01-27T03:29:34.404Z,5.83
2019-01-27T03:32:03.243Z,4.37
2019-01-27T03:34:32.168Z,5.33
2019-01-27T03:37:00.961Z,4.77
2019-01-27T03:39:29.637Z,5.00
2019-01-27T03:41:58.470Z,4.53
2019-01-27T03:44:27.209Z,4.73
2019-01-27T03:46:56.090Z,6.03
2019-01-27T03:49:25.008Z,5.90
2019-01-27T03:51:53.792Z,5.10
2019-01-27T03:54:23.181Z,5.47
2019-01-27T03:56:52.852Z,6.10
2019-01-27T03:59:21.816Z,6.00
2019-01-27T04:01:50.647Z,5.67
2019-01-27T04:04:19.324Z,4.97
2019-01-27T04:06:48.168Z,4.30
2019-01-27T04:09:16.863Z,5.23
2019-01-27T04:11:45.616Z,4.50
2019-01-27T04:14:14.253Z,4.77
2019-01-27T04:16:43.003Z,5.30
2019-01-27T04:19:11.881Z,4.13
2019-01-27T04:21:40.539Z,6.53
2019-01-27T04:24:09.215Z,4.80
2019-01-27T04:26:38.011Z,5.67
2019-01-27T04:29:06.823Z,5.67
2019-01-27T04:31:35.428Z,6.47
2019-01-27T04:34:04.248Z,6.30
2019-01-27T04:36:33.038Z,6.20
2019-01-27T04:39:01.691Z,6.40
2019-01-27T04:41:30.510Z,7.47
2019-01-27T04:43:59.275Z,9.30
2019-01-27T04:46:28.175Z,10.27
2019-01-27T04:48:56.886Z,11.40
2019-01-27T04:51:25.801Z,11.17
2019-01-27T04:53:54.505Z,12.27
2019-01-27T04:56:23.873Z,11.40
2019-01-27T04:58:52.720Z,12.00
2019-01-27T05:01:21.528Z,12.70
2019-01-27T05:03:51.830Z,12.90
2019-01-27T05:06:20.690Z,12.13
2019-01-27T05:08:49.486Z,12.27
2019-01-27T05:11:18.476Z,13.20
2019-01-27T05:13:47.278Z,12.83
2019-01-27T05:16:15.975Z,11.73
2019-01-27T05:18:44.841Z,13.43
2019-01-27T05:21:13.593Z,11.47
2019-01-27T05:23:42.323Z,12.03
2019-01-27T05:26:11.102Z,11.40
2019-01-27T05:28:39.786Z,11.70
2019-01-27T05:31:08.457Z,10.73
2019-01-27T05:33:37.385Z,10.20
2019-01-27T05:36:06.190Z,9.00
2019-01-27T05:38:34.848Z,10.07
2019-01-27T05:41:03.622Z,9.37
2019-01-27T05:43:32.408Z,9.90
2019-01-27T05:46:01.045Z,9.90
2019-01-27T05:48:29.897Z,9.13
2019-01-27T05:50:58.677Z,8.87
2019-01-27T05:53:27.409Z,9.97
2019-01-27T05:55:56.180Z,9.00
2019-01-27T05:58:25.324Z,8.90
2019-01-27T06:00:54.052Z,9.53
2019-01-27T06:03:23.021Z,10.03
2019-01-27T06:05:51.777Z,9.87
2019-01-27T06:08:20.668Z,8.43
2019-01-27T06:10:48.656Z,8.20
2019-01-27T06:13:17.411Z,7.03
2019-01-27T06:15:46.213Z,7.13
2019-01-27T06:18:15.022Z,6.60
2019-01-27T06:20:43.686Z,6.50
2019-01-27T06:23:12.493Z,6.53
2019-01-27T06:25:41.393Z,6.70
2019-01-27T06:28:10.176Z,6.23
2019-01-27T06:30:38.994Z,6.57
2019-01-27T06:33:09.347Z,6.30
2019-01-27T06:35:38.682Z,5.90
2019-01-27T06:38:07.589Z,5.23
2019-01-27T06:40:36.356Z,5.17
2019-01-27T06:43:05.200Z,5.50
2019-01-27T06:45:33.944Z,5.30
2019-01-27T06:48:02.900Z,4.43
2019-01-27T06:50:31.580Z,4.00
2019-01-27T06:53:00.264Z,4.80
2019-01-27T06:55:29.057Z,4.77
2019-01-27T06:57:57.765Z,5.30
2019-01-27T07:00:47.245Z,4.87
2019-01-27T07:03:23.866Z,5.47
2019-01-27T07:06:11.434Z,5.20
2019-01-27T07:08:51.169Z,4.80
2019-01-27T07:11:20.684Z,5.13
2019-01-27T07:14:06.685Z,4.87
2019-01-27T07:16:46.092Z,4.43
2019-01-27T07:19:26.278Z,6.20
2019-01-27T07:21:56.642Z,5.07
2019-01-27T07:24:26.931Z,4.30
2019-01-27T07:27:12.336Z,4.10
2019-01-27T07:30:00.428Z,3.90
2019-01-27T07:32:37.905Z,4.00
2019-01-27T07:35:25.016Z,4.77
2019-01-27T07:37:55.398Z,4.70
2019-01-27T07:40:25.794Z,4.20
2019-01-27T07:43:02.124Z,4.07
2019-01-27T07:45:32.476Z,4.27
2019-01-27T07:48:02.707Z,4.60
2019-01-27T07:50:51.724Z,4.80
2019-01-27T07:53:25.562Z,4.67
2019-01-27T07:56:07.825Z,4.10
2019-01-27T07:58:47.459Z,4.97
2019-01-27T08:01:25.318Z,4.03
2019-01-27T08:03:59.453Z,4.13
2019-01-27T08:06:31.727Z,4.10
2019-01-27T08:09:06.586Z,4.43
2019-01-27T08:11:36.819Z,5.17
2019-01-27T08:14:07.157Z,3.80
2019-01-27T08:16:37.459Z,4.40
2019-01-27T08:19:14.060Z,4.23
2019-01-27T08:21:44.413Z,3.87
2019-01-27T08:24:14.766Z,4.83
2019-01-27T08:26:46.717Z,3.67
2019-01-27T08:29:23.606Z,4.17
2019-01-27T08:31:58.486Z,4.03
2019-01-27T08:34:32.164Z,3.70
2019-01-27T08:37:02.502Z,4.23
2019-01-27T08:39:32.819Z,3.50
2019-01-27T08:42:03.284Z,3.80
2019-01-27T08:44:42.925Z,3.30
2019-01-27T08:47:11.672Z,3.40
2019-01-27T08:49:40.781Z,3.23
2019-01-27T08:52:09.459Z,3.50
2019-01-27T08:54:38.100Z,3.03
2019-01-27T08:57:07.202Z,3.70
2019-01-27T08:59:36.003Z,3.57
2019-01-27T09:02:16.309Z,2.60
2019-01-27T09:04:46.754Z,2.40
2019-01-27T09:07:17.010Z,2.57
2019-01-27T09:09:47.226Z,2.80
2019-01-27T09:12:23.615Z,2.73
2019-01-27T09:15:00.448Z,2.20
2019-01-27T09:17:36.842Z,3.17
2019-01-27T09:20:17.951Z,2.43
2019-01-27T09:22:51.524Z,2.93
2019-01-27T09:25:21.631Z,2.43
2019-01-27T09:27:58.291Z,2.50
2019-01-27T09:30:43.802Z,2.70
2019-01-27T09:33:30.727Z,3.43
2019-01-27T09:36:01.285Z,2.40
2019-01-27T09:38:35.127Z,2.63
2019-01-27T09:41:22.986Z,1.87
2019-01-27T09:44:10.394Z,2.20
2019-01-27T09:46:58.348Z,2.37
2019-01-27T09:49:35.470Z,1.73
2019-01-27T09:52:05.780Z,2.40
2019-01-27T09:54:35.959Z,2.00
2019-01-27T09:57:12.152Z,1.60
2019-01-27T09:59:42.362Z,1.50
2019-01-27T10:02:12.686Z,2.13
2019-01-27T10:04:45.424Z,1.40
2019-01-27T10:07:34.327Z,1.80
2019-01-27T10:10:16.824Z,2.70
2019-01-27T10:12:50.591Z,1.87
2019-01-27T10:15:21.003Z,1.60
2019-01-27T10:17:51.393Z,1.00
2019-01-27T10:20:25.546Z,2.33
2019-01-27T10:23:05.008Z,1.97
2019-01-27T10:25:41.928Z,1.37
2019-01-27T10:28:12.280Z,1.03
2019-01-27T10:30:52.094Z,1.27
2019-01-27T10:33:37.985Z,1.23
2019-01-27T10:36:26.707Z,0.90
2019-01-27T10:39:03.173Z,1.13
2019-01-27T10:41:38.287Z,1.17
2019-01-27T10:44:08.618Z,0.87
2019-01-27T10:46:51.535Z,0.90
2019-01-27T10:49:28.172Z,0.80
2019-01-27T10:52:01.979Z,0.73
2019-01-27T10:54:41.151Z,1.13
2019-01-27T10:57:15.298Z,1.37
2019-01-27T10:59:49.386Z,1.37
2019-01-27T11:02:21.246Z,1.60
2019-01-27T11:05:01.154Z,1.60
2019-01-27T11:07:45.787Z,1.03
2019-01-27T11:10:16.098Z,1.40
2019-01-27T11:13:01.483Z,0.77
2019-01-27T11:15:35.322Z,0.90
2019-01-27T11:18:15.389Z,1.10
2019-01-27T11:20:45.727Z,0.67
2019-01-27T11:23:22.110Z,1.20
2019-01-27T11:25:59.418Z,2.33
2019-01-27T11:28:33.788Z,1.27
2019-01-27T11:31:04.128Z,1.07
2019-01-27T11:33:40.761Z,1.20
2019-01-27T11:36:28.173Z,0.87
2019-01-27T11:39:01.972Z,1.00
2019-01-27T11:41:38.654Z,1.90
2019-01-27T11:44:12.726Z,0.83
2019-01-27T11:47:00.625Z,0.90
2019-01-27T11:49:30.949Z,0.80
2019-01-27T11:51:59.779Z,1.63
2019-01-27T11:54:28.445Z,0.90
2019-01-27T11:56:57.305Z,0.90
2019-01-27T11:59:26.023Z,1.40
2019-01-27T12:01:54.953Z,1.40
2019-01-27T12:04:23.817Z,1.00
2019-01-27T12:06:52.547Z,0.80
2019-01-27T12:09:23.465Z,0.97
2019-01-27T12:11:52.400Z,0.80
2019-01-27T12:14:21.176Z,1.13
2019-01-27T12:16:49.947Z,0.93
2019-01-27T12:19:18.920Z,2.40
2019-01-27T12:21:47.755Z,2.40
2019-01-27T12:24:16.466Z,1.03
2019-01-27T12:26:45.426Z,1.90
2019-01-27T12:29:14.127Z,1.33
2019-01-27T12:31:43.108Z,1.40
2019-01-27T12:34:11.833Z,1.17
2019-01-27T12:36:40.564Z,1.70
2019-01-27T12:39:09.650Z,1.70
2019-01-27T12:41:38.566Z,1.40
2019-01-27T12:44:07.250Z,2.00
2019-01-27T12:46:35.996Z,1.27
2019-01-27T12:49:04.938Z,1.90
2019-01-27T12:51:33.771Z,2.73
2019-01-27T12:54:02.358Z,1.57
2019-01-27T12:56:31.110Z,1.73
2019-01-27T12:58:59.910Z,1.80
2019-01-27T13:01:28.749Z,2.20
2019-01-27T13:03:57.678Z,2.03
2019-01-27T13:06:29.484Z,2.07
2019-01-27T13:08:58.317Z,3.63
2019-01-27T13:11:27.468Z,2.43
2019-01-27T13:13:56.107Z,1.87
2019-01-27T13:16:24.792Z,2.23
2019-01-27T13:18:53.566Z,2.37
2019-01-27T13:21:22.334Z,2.03
2019-01-27T13:23:50.998Z,1.60
2019-01-27T13:26:20.017Z,1.90
2019-01-27T13:28:48.696Z,1.83
2019-01-27T13:31:18.687Z,1.87
2019-01-27T13:33:47.980Z,2.40
2019-01-27T13:36:16.687Z,1.70
2019-01-27T13:38:51.010Z,1.90
2019-01-27T13:41:16.359Z,2.30
2019-01-27T13:43:45.212Z,1.87
2019-01-27T13:46:13.975Z,1.80
2019-01-27T13:48:43.007Z,1.67
2019-01-27T13:51:11.915Z,1.83
2019-01-27T13:53:40.518Z,1.33
2019-01-27T13:56:09.425Z,1.93
2019-01-27T13:58:38.128Z,2.10
2019-01-27T14:01:06.798Z,1.50
2019-01-27T14:03:35.674Z,1.50
2019-01-27T14:06:04.331Z,1.73
2019-01-27T14:08:33.123Z,1.80
2019-01-27T14:11:02.031Z,1.97
2019-01-27T14:13:32.087Z,2.30
2019-01-27T14:16:00.861Z,1.50
2019-01-27T14:18:29.796Z,2.00
2019-01-27T14:20:58.591Z,1.97
2019-01-27T14:23:27.380Z,1.97
2019-01-27T14:25:56.226Z,1.73
2019-01-27T14:28:25.060Z,2.40
2019-01-27T14:30:53.770Z,1.47
2019-01-27T14:33:22.632Z,1.83
2019-01-27T14:35:51.426Z,1.70
2019-01-27T14:38:20.207Z,14.73
2019-01-27T14:40:49.025Z,6.20
2019-01-27T14:43:18.014Z,1.77
2019-01-27T14:45:46.859Z,1.73
2019-01-27T14:48:15.840Z,1.60
2019-01-27T14:50:48.194Z,2.43
2019-01-27T14:53:16.924Z,2.87
2019-01-27T14:55:45.740Z,2.60
2019-01-27T14:58:14.539Z,2.37
2019-01-27T15:00:44.148Z,1.73
2019-01-27T15:03:13.351Z,2.37
2019-01-27T15:05:42.036Z,2.07
2019-01-27T15:08:10.856Z,2.37
2019-01-27T15:10:39.775Z,1.53
2019-01-27T15:13:09.136Z,1.60
2019-01-27T15:15:38.718Z,1.50
2019-01-27T15:18:07.485Z,2.07
2019-01-27T15:20:37.446Z,1.97
2019-01-27T15:23:06.066Z,1.90
2019-01-27T15:25:34.911Z,1.63
2019-01-27T15:28:03.637Z,2.17
2019-01-27T15:30:33.421Z,2.30
2019-01-27T15:33:02.534Z,2.30
2019-01-27T15:35:31.276Z,1.83
2019-01-27T15:38:00.100Z,2.27
2019-01-27T15:40:28.992Z,1.87
2019-01-27T15:42:57.877Z,2.07
2019-01-27T15:45:29.662Z,2.47
2019-01-27T15:47:58.496Z,1.40
2019-01-27T15:50:28.340Z,2.10
2019-01-27T15:52:56.954Z,3.10
2019-01-27T15:55:25.738Z,2.80
2019-01-27T15:57:54.444Z,1.80
2019-01-27T16:00:24.259Z,1.80
2019-01-27T16:02:53.094Z,2.47
2019-01-27T16:05:22.885Z,2.10
2019-01-27T16:07:51.753Z,2.10
2019-01-27T16:10:21.538Z,3.13
2019-01-27T16:12:50.479Z,2.73
2019-01-27T16:15:23.515Z,2.73
2019-01-27T16:17:52.803Z,2.80
2019-01-27T16:20:21.839Z,2.80
2019-01-27T16:22:58.309Z,1.90
2019-01-27T16:25:27.312Z,2.53
2019-01-27T16:27:56.331Z,2.27
2019-01-27T16:30:26.928Z,1.40
2019-01-27T16:33:00.804Z,2.10
2019-01-27T16:35:29.339Z,1.97
2019-01-27T16:37:58.378Z,2.97
2019-01-27T16:40:27.268Z,2.40
2019-01-27T16:42:56.218Z,2.70
2019-01-27T16:45:25.411Z,2.07
2019-01-27T16:47:54.182Z,2.17
2019-01-27T16:50:23.071Z,2.20
2019-01-27T16:52:52.021Z,2.20
2019-01-27T16:55:21.089Z,2.53
2019-01-27T16:57:49.728Z,2.33
2019-01-27T17:00:20.333Z,2.40
2019-01-27T17:02:49.428Z,2.73
2019-01-27T17:05:18.444Z,2.40
2019-01-27T17:07:47.305Z,2.10
2019-01-27T17:10:19.989Z,5.37
2019-01-27T17:12:48.891Z,3.30
2019-01-27T17:15:17.650Z,4.50
2019-01-27T17:17:46.448Z,4.20
2019-01-27T17:20:17.054Z,2.43
2019-01-27T17:22:46.691Z,2.90
2019-01-27T17:25:15.496Z,1.90
2019-01-27T17:27:44.277Z,2.80
2019-01-27T17:30:14.490Z,2.10
2019-01-27T17:32:43.078Z,2.67
2019-01-27T17:35:12.825Z,3.37
2019-01-27T17:37:41.645Z,2.80
2019-01-27T17:40:11.507Z,5.43
2019-01-27T17:42:40.233Z,3.40
2019-01-27T17:45:10.329Z,3.07
2019-01-27T17:47:39.102Z,2.37
2019-01-27T17:50:09.129Z,4.40
2019-01-27T17:52:37.911Z,5.10
2019-01-27T17:55:07.659Z,3.70
2019-01-27T17:57:37.761Z,3.30
2019-01-27T18:00:09.398Z,3.00
2019-01-27T18:02:43.889Z,4.17
2019-01-27T18:05:20.201Z,3.20
2019-01-27T18:07:56.488Z,2.67
2019-01-27T18:10:26.964Z,2.60
2019-01-27T18:13:00.750Z,3.13
2019-01-27T18:15:29.713Z,3.20
2019-01-27T18:17:58.592Z,4.30
2019-01-27T18:20:27.204Z,3.63
2019-01-27T18:22:56.798Z,3.07
2019-01-27T18:25:25.529Z,3.53
2019-01-27T18:27:54.385Z,3.33
2019-01-27T18:30:23.160Z,2.60
2019-01-27T18:32:51.857Z,5.20
2019-01-27T18:35:20.606Z,4.50
2019-01-27T18:37:49.358Z,4.03
2019-01-27T18:40:18.249Z,2.93
2019-01-27T18:42:47.128Z,3.40
2019-01-27T18:45:16.384Z,3.80
2019-01-27T18:47:45.295Z,2.80
2019-01-27T18:50:21.050Z,2.53
2019-01-27T18:52:51.443Z,2.90
2019-01-27T18:55:21.499Z,2.77
2019-01-27T18:57:57.970Z,3.90
2019-01-27T19:00:37.922Z,3.53
2019-01-27T19:03:17.684Z,3.20
2019-01-27T19:05:57.694Z,3.00
2019-01-27T19:08:28.174Z,3.40
2019-01-27T19:10:58.448Z,2.50
2019-01-27T19:13:28.739Z,5.10
2019-01-27T19:16:02.690Z,10.03
2019-01-27T19:18:50.382Z,25.03
2019-01-27T19:21:32.581Z,35.20
2019-01-27T19:24:20.864Z,7.30
2019-01-27T19:26:50.842Z,4.13
2019-01-27T19:29:21.242Z,3.77
2019-01-27T19:32:08.566Z,2.57
2019-01-27T19:34:38.521Z,2.53
2019-01-27T19:37:21.274Z,2.53
2019-01-27T19:39:51.165Z,2.90
2019-01-27T19:42:27.682Z,4.67
2019-01-27T19:45:10.105Z,2.77
2019-01-27T19:47:40.527Z,3.50
2019-01-27T19:50:28.512Z,7.60
2019-01-27T19:53:02.178Z,4.70
2019-01-27T19:55:37.294Z,4.00
2019-01-27T19:58:16.817Z,3.90
2019-01-27T20:00:53.678Z,2.93
2019-01-27T20:03:30.266Z,4.00
2019-01-27T20:06:00.324Z,2.83
2019-01-27T20:08:33.977Z,3.00
2019-01-27T20:11:10.780Z,3.40
2019-01-27T20:13:44.609Z,3.87
2019-01-27T20:16:20.875Z,3.40
2019-01-27T20:19:08.606Z,4.00
2019-01-27T20:21:38.764Z,5.33
2019-01-27T20:24:13.059Z,3.20
2019-01-27T20:26:43.358Z,3.30
2019-01-27T20:29:13.807Z,4.23
2019-01-27T20:31:53.629Z,3.63
2019-01-27T20:34:27.639Z,4.03
2019-01-27T20:36:58.015Z,5.33
2019-01-27T20:39:31.225Z,4.23
2019-01-27T20:42:18.833Z,3.70
2019-01-27T20:44:55.100Z,4.40
2019-01-27T20:47:29.417Z,3.77
2019-01-27T20:50:17.502Z,5.00
2019-01-27T20:52:47.631Z,3.77
2019-01-27T20:55:26.660Z,3.60
2019-01-27T20:57:56.971Z,4.40
2019-01-27T21:00:33.972Z,3.57
2019-01-27T21:03:10.579Z,4.17
2019-01-27T21:05:40.562Z,7.30
2019-01-27T21:08:26.390Z,5.60
2019-01-27T21:10:56.456Z,4.17
2019-01-27T21:13:32.792Z,3.70
2019-01-27T21:16:21.299Z,4.03
2019-01-27T21:18:56.253Z,3.40
2019-01-27T21:21:25.223Z,3.80
2019-01-27T21:23:54.181Z,3.60
2019-01-27T21:26:23.053Z,3.10
2019-01-27T21:28:52.156Z,3.20
2019-01-27T21:31:20.497Z,3.80
2019-01-27T21:33:49.427Z,4.40
2019-01-27T21:36:18.487Z,4.50
2019-01-27T21:38:48.795Z,3.00
2019-01-27T21:41:17.890Z,3.40
2019-01-27T21:43:47.062Z,2.90
2019-01-27T21:46:15.483Z,4.60
2019-01-27T21:48:44.328Z,10.67
2019-01-27T21:51:13.094Z,3.23
2019-01-27T21:53:41.517Z,5.23
2019-01-27T21:56:10.376Z,3.67
2019-01-27T21:58:39.142Z,6.30
2019-01-27T22:01:08.376Z,2.97
2019-01-27T22:03:37.256Z,3.30
2019-01-27T22:06:05.999Z,3.10
2019-01-27T22:08:34.704Z,4.03
2019-01-27T22:11:03.671Z,6.30
2019-01-27T22:13:32.368Z,3.80
2019-01-27T22:16:01.334Z,3.43
2019-01-27T22:18:30.192Z,2.83
2019-01-27T22:20:58.959Z,2.77
2019-01-27T22:23:27.614Z,2.27
2019-01-27T22:25:56.638Z,3.40
2019-01-27T22:28:25.837Z,3.07
2019-01-27T22:30:54.682Z,2.37
2019-01-27T22:33:23.599Z,3.23
2019-01-27T22:35:52.385Z,3.30
2019-01-27T22:38:21.432Z,4.77
2019-01-27T22:40:50.269Z,3.67
2019-01-27T22:43:19.312Z,3.70
2019-01-27T22:45:48.004Z,3.30
2019-01-27T22:48:16.984Z,3.40
2019-01-27T22:50:45.773Z,3.67
2019-01-27T22:53:14.517Z,3.80
2019-01-27T22:55:43.074Z,3.33
2019-01-27T22:58:11.695Z,3.33
2019-01-27T23:00:46.087Z,3.73
2019-01-27T23:03:14.886Z,4.33
2019-01-27T23:05:43.602Z,4.27
2019-01-27T23:08:12.278Z,3.90
2019-01-27T23:10:41.001Z,3.00
2019-01-27T23:13:09.671Z,3.37
2019-01-27T23:15:38.604Z,3.00
2019-01-27T23:18:07.378Z,4.93
2019-01-27T23:20:36.111Z,5.37
2019-01-27T23:23:04.910Z,4.00
2019-01-27T23:25:33.576Z,3.97
2019-01-27T23:28:02.417Z,2.87
2019-01-27T23:30:31.338Z,3.90
2019-01-27T23:33:00.019Z,4.07
2019-01-27T23:35:28.771Z,4.90
2019-01-27T23:37:57.640Z,4.70
2019-01-27T23:40:26.239Z,4.60
2019-01-27T23:42:54.981Z,3.23
2019-01-27T23:45:23.980Z,3.57
2019-01-27T23:47:52.660Z,2.83
2019-01-27T23:50:21.387Z,3.60
2019-01-27T23:52:50.194Z,3.00
2019-01-27T23:55:18.754Z,3.70
2019-01-27T23:57:47.398Z,3.20
